sensor_id;sensor_type;location;lat;lon;timestamp;P1;durP1;ratioP1;P2;durP2;ratioP2
79792;SDS011;69279;49.072;17.462;2023-08-12T00:01:01;7.10;;;5.72;;
79792;SDS011;69279;49.072;17.462;2023-08-12T00:03:26;8.68;;;5.80;;
79792;SDS011;69279;49.072;17.462;2023-08-12T00:05:52;6.57;;;5.32;;
79792;SDS011;69279;49.072;17.462;2023-08-12T00:08:18;7.28;;;5.68;;
79792;SDS011;69279;49.072;17.462;2023-08-12T00:10:43;7.00;;;5.38;;
79792;SDS011;69279;49.072;17.462;2023-08-12T00:13:09;6.82;;;5.90;;
79792;SDS011;69279;49.072;17.462;2023-08-12T00:15:34;6.28;;;5.25;;
79792;SDS011;69279;49.072;17.462;2023-08-12T00:18:00;7.93;;;5.97;;
79792;SDS011;69279;49.072;17.462;2023-08-12T00:20:26;8.82;;;5.40;;
79792;SDS011;69279;49.072;17.462;2023-08-12T00:22:51;8.15;;;5.78;;
79792;SDS011;69279;49.072;17.462;2023-08-12T00:25:17;7.93;;;5.30;;
79792;SDS011;69279;49.072;17.462;2023-08-12T00:27:42;7.55;;;5.50;;
79792;SDS011;69279;49.072;17.462;2023-08-12T00:30:07;7.75;;;6.00;;
79792;SDS011;69279;49.072;17.462;2023-08-12T00:32:34;6.90;;;5.47;;
79792;SDS011;69279;49.072;17.462;2023-08-12T00:35:00;7.10;;;5.47;;
79792;SDS011;69279;49.072;17.462;2023-08-12T00:37:25;6.55;;;4.95;;
79792;SDS011;69279;49.072;17.462;2023-08-12T00:39:51;6.50;;;4.97;;
79792;SDS011;69279;49.072;17.462;2023-08-12T00:42:16;8.02;;;6.35;;
79792;SDS011;69279;49.072;17.462;2023-08-12T00:44:42;7.07;;;5.60;;
79792;SDS011;69279;49.072;17.462;2023-08-12T00:47:07;6.55;;;4.97;;
79792;SDS011;69279;49.072;17.462;2023-08-12T00:49:32;7.60;;;5.15;;
79792;SDS011;69279;49.072;17.462;2023-08-12T00:51:58;7.60;;;5.25;;
79792;SDS011;69279;49.072;17.462;2023-08-12T00:54:24;7.45;;;4.97;;
79792;SDS011;69279;49.072;17.462;2023-08-12T00:56:51;6.63;;;5.25;;
79792;SDS011;69279;49.072;17.462;2023-08-12T00:59:17;6.88;;;4.85;;
79792;SDS011;69279;49.072;17.462;2023-08-12T01:01:44;7.53;;;6.13;;
79792;SDS011;69279;49.072;17.462;2023-08-12T01:04:10;8.40;;;5.40;;
79792;SDS011;69279;49.072;17.462;2023-08-12T01:06:36;7.22;;;5.35;;
79792;SDS011;69279;49.072;17.462;2023-08-12T01:09:05;7.43;;;5.22;;
79792;SDS011;69279;49.072;17.462;2023-08-12T01:14:33;6.15;;;4.95;;
79792;SDS011;69279;49.072;17.462;2023-08-12T01:17:03;5.40;;;4.72;;
79792;SDS011;69279;49.072;17.462;2023-08-12T01:22:00;7.43;;;5.32;;
79792;SDS011;69279;49.072;17.462;2023-08-12T01:24:33;6.70;;;4.82;;
79792;SDS011;69279;49.072;17.462;2023-08-12T01:27:02;7.55;;;5.75;;
79792;SDS011;69279;49.072;17.462;2023-08-12T01:29:28;5.82;;;4.75;;
79792;SDS011;69279;49.072;17.462;2023-08-12T01:31:55;6.45;;;5.05;;
79792;SDS011;69279;49.072;17.462;2023-08-12T01:37:24;7.40;;;5.28;;
79792;SDS011;69279;49.072;17.462;2023-08-12T01:39:53;8.18;;;5.03;;
79792;SDS011;69279;49.072;17.462;2023-08-12T01:42:21;5.90;;;5.10;;
79792;SDS011;69279;49.072;17.462;2023-08-12T01:44:46;6.20;;;5.00;;
79792;SDS011;69279;49.072;17.462;2023-08-12T01:47:13;6.55;;;5.07;;
79792;SDS011;69279;49.072;17.462;2023-08-12T01:49:38;6.85;;;5.13;;
79792;SDS011;69279;49.072;17.462;2023-08-12T01:52:04;6.45;;;4.90;;
79792;SDS011;69279;49.072;17.462;2023-08-12T01:54:29;10.05;;;5.18;;
79792;SDS011;69279;49.072;17.462;2023-08-12T01:57:02;7.18;;;4.85;;
79792;SDS011;69279;49.072;17.462;2023-08-12T01:59:33;6.70;;;5.10;;
79792;SDS011;69279;49.072;17.462;2023-08-12T02:02:02;7.15;;;4.90;;
79792;SDS011;69279;49.072;17.462;2023-08-12T02:04:28;6.18;;;4.95;;
79792;SDS011;69279;49.072;17.462;2023-08-12T02:06:54;6.05;;;5.15;;
79792;SDS011;69279;49.072;17.462;2023-08-12T02:09:20;6.43;;;5.20;;
79792;SDS011;69279;49.072;17.462;2023-08-12T02:11:49;7.57;;;5.15;;
79792;SDS011;69279;49.072;17.462;2023-08-12T02:14:14;4.82;;;4.25;;
79792;SDS011;69279;49.072;17.462;2023-08-12T02:16:40;4.80;;;4.07;;
79792;SDS011;69279;49.072;17.462;2023-08-12T02:19:06;4.25;;;3.83;;
79792;SDS011;69279;49.072;17.462;2023-08-12T02:21:32;6.63;;;4.18;;
79792;SDS011;69279;49.072;17.462;2023-08-12T02:23:57;5.80;;;4.38;;
79792;SDS011;69279;49.072;17.462;2023-08-12T02:26:22;7.13;;;4.32;;
79792;SDS011;69279;49.072;17.462;2023-08-12T02:28:48;5.90;;;5.15;;
79792;SDS011;69279;49.072;17.462;2023-08-12T02:31:15;7.70;;;5.05;;
79792;SDS011;69279;49.072;17.462;2023-08-12T02:33:41;5.93;;;4.65;;
79792;SDS011;69279;49.072;17.462;2023-08-12T02:36:06;6.10;;;5.38;;
79792;SDS011;69279;49.072;17.462;2023-08-12T02:38:32;5.70;;;4.45;;
79792;SDS011;69279;49.072;17.462;2023-08-12T02:40:57;5.20;;;4.40;;
79792;SDS011;69279;49.072;17.462;2023-08-12T02:43:22;6.40;;;5.13;;
79792;SDS011;69279;49.072;17.462;2023-08-12T02:45:48;5.55;;;4.35;;
79792;SDS011;69279;49.072;17.462;2023-08-12T02:48:13;6.13;;;5.07;;
79792;SDS011;69279;49.072;17.462;2023-08-12T02:50:39;5.57;;;4.53;;
79792;SDS011;69279;49.072;17.462;2023-08-12T02:53:04;5.75;;;4.68;;
79792;SDS011;69279;49.072;17.462;2023-08-12T02:55:30;5.63;;;4.90;;
79792;SDS011;69279;49.072;17.462;2023-08-12T02:57:57;4.95;;;3.95;;
79792;SDS011;69279;49.072;17.462;2023-08-12T03:00:23;4.82;;;4.18;;
79792;SDS011;69279;49.072;17.462;2023-08-12T03:02:48;5.05;;;4.28;;
79792;SDS011;69279;49.072;17.462;2023-08-12T03:05:13;7.63;;;4.78;;
79792;SDS011;69279;49.072;17.462;2023-08-12T03:07:39;13.02;;;4.78;;
79792;SDS011;69279;49.072;17.462;2023-08-12T03:10:04;6.40;;;4.50;;
79792;SDS011;69279;49.072;17.462;2023-08-12T03:12:30;7.30;;;4.50;;
79792;SDS011;69279;49.072;17.462;2023-08-12T03:14:56;7.00;;;5.07;;
79792;SDS011;69279;49.072;17.462;2023-08-12T03:17:21;6.90;;;6.00;;
79792;SDS011;69279;49.072;17.462;2023-08-12T03:19:47;9.35;;;6.28;;
79792;SDS011;69279;49.072;17.462;2023-08-12T03:22:12;8.60;;;5.55;;
79792;SDS011;69279;49.072;17.462;2023-08-12T03:24:37;7.97;;;5.60;;
79792;SDS011;69279;49.072;17.462;2023-08-12T03:27:03;6.82;;;5.68;;
79792;SDS011;69279;49.072;17.462;2023-08-12T03:29:28;10.48;;;6.30;;
79792;SDS011;69279;49.072;17.462;2023-08-12T03:31:53;8.18;;;5.43;;
79792;SDS011;69279;49.072;17.462;2023-08-12T03:34:19;7.75;;;5.47;;
79792;SDS011;69279;49.072;17.462;2023-08-12T03:36:44;8.07;;;5.25;;
79792;SDS011;69279;49.072;17.462;2023-08-12T03:39:13;6.47;;;4.68;;
79792;SDS011;69279;49.072;17.462;2023-08-12T03:41:38;6.57;;;5.22;;
79792;SDS011;69279;49.072;17.462;2023-08-12T03:44:04;8.98;;;5.07;;
79792;SDS011;69279;49.072;17.462;2023-08-12T03:46:29;7.22;;;5.43;;
79792;SDS011;69279;49.072;17.462;2023-08-12T03:48:55;7.22;;;5.28;;
79792;SDS011;69279;49.072;17.462;2023-08-12T03:51:20;7.80;;;5.53;;
79792;SDS011;69279;49.072;17.462;2023-08-12T03:53:46;7.47;;;5.60;;
79792;SDS011;69279;49.072;17.462;2023-08-12T03:56:11;8.70;;;5.80;;
79792;SDS011;69279;49.072;17.462;2023-08-12T03:58:40;10.70;;;5.82;;
79792;SDS011;69279;49.072;17.462;2023-08-12T04:01:05;9.13;;;5.88;;
79792;SDS011;69279;49.072;17.462;2023-08-12T04:03:30;7.85;;;5.97;;
79792;SDS011;69279;49.072;17.462;2023-08-12T04:05:56;6.78;;;5.53;;
79792;SDS011;69279;49.072;17.462;2023-08-12T04:08:22;9.52;;;6.20;;
79792;SDS011;69279;49.072;17.462;2023-08-12T04:10:48;7.60;;;5.50;;
79792;SDS011;69279;49.072;17.462;2023-08-12T04:13:14;8.13;;;5.53;;
79792;SDS011;69279;49.072;17.462;2023-08-12T04:15:40;8.88;;;5.95;;
79792;SDS011;69279;49.072;17.462;2023-08-12T04:18:05;8.15;;;5.97;;
79792;SDS011;69279;49.072;17.462;2023-08-12T04:20:31;10.93;;;6.60;;
79792;SDS011;69279;49.072;17.462;2023-08-12T04:22:56;9.32;;;5.88;;
79792;SDS011;69279;49.072;17.462;2023-08-12T04:25:22;8.80;;;5.88;;
79792;SDS011;69279;49.072;17.462;2023-08-12T04:27:47;8.43;;;5.82;;
79792;SDS011;69279;49.072;17.462;2023-08-12T04:30:14;10.30;;;5.75;;
79792;SDS011;69279;49.072;17.462;2023-08-12T04:32:40;8.40;;;5.80;;
79792;SDS011;69279;49.072;17.462;2023-08-12T04:35:06;7.55;;;6.18;;
79792;SDS011;69279;49.072;17.462;2023-08-12T04:37:32;9.10;;;5.55;;
79792;SDS011;69279;49.072;17.462;2023-08-12T04:39:57;8.82;;;5.95;;
79792;SDS011;69279;49.072;17.462;2023-08-12T04:42:24;8.85;;;6.10;;
79792;SDS011;69279;49.072;17.462;2023-08-12T04:44:49;8.23;;;5.65;;
79792;SDS011;69279;49.072;17.462;2023-08-12T04:47:15;7.95;;;5.75;;
79792;SDS011;69279;49.072;17.462;2023-08-12T04:49:41;7.80;;;5.68;;
79792;SDS011;69279;49.072;17.462;2023-08-12T04:52:06;7.88;;;6.43;;
79792;SDS011;69279;49.072;17.462;2023-08-12T04:54:32;9.48;;;6.00;;
79792;SDS011;69279;49.072;17.462;2023-08-12T04:56:57;8.23;;;6.40;;
79792;SDS011;69279;49.072;17.462;2023-08-12T04:59:24;8.23;;;5.70;;
79792;SDS011;69279;49.072;17.462;2023-08-12T05:01:49;9.07;;;6.07;;
79792;SDS011;69279;49.072;17.462;2023-08-12T05:04:15;6.85;;;5.82;;
79792;SDS011;69279;49.072;17.462;2023-08-12T05:06:40;7.90;;;6.13;;
79792;SDS011;69279;49.072;17.462;2023-08-12T05:09:06;7.93;;;5.72;;
79792;SDS011;69279;49.072;17.462;2023-08-12T05:11:31;8.00;;;5.82;;
79792;SDS011;69279;49.072;17.462;2023-08-12T05:13:56;9.65;;;5.88;;
79792;SDS011;69279;49.072;17.462;2023-08-12T05:16:22;8.27;;;5.35;;
79792;SDS011;69279;49.072;17.462;2023-08-12T05:18:47;7.25;;;5.80;;
79792;SDS011;69279;49.072;17.462;2023-08-12T05:21:12;8.48;;;5.80;;
79792;SDS011;69279;49.072;17.462;2023-08-12T05:23:38;6.90;;;5.90;;
79792;SDS011;69279;49.072;17.462;2023-08-12T05:26:03;7.80;;;6.05;;
79792;SDS011;69279;49.072;17.462;2023-08-12T05:28:30;9.93;;;6.60;;
79792;SDS011;69279;49.072;17.462;2023-08-12T05:30:55;7.97;;;6.30;;
79792;SDS011;69279;49.072;17.462;2023-08-12T05:33:20;8.88;;;5.95;;
79792;SDS011;69279;49.072;17.462;2023-08-12T05:35:49;7.70;;;6.22;;
79792;SDS011;69279;49.072;17.462;2023-08-12T05:38:15;9.40;;;6.15;;
79792;SDS011;69279;49.072;17.462;2023-08-12T05:40:41;7.75;;;5.47;;
79792;SDS011;69279;49.072;17.462;2023-08-12T05:43:06;7.80;;;4.88;;
79792;SDS011;69279;49.072;17.462;2023-08-12T05:45:32;5.45;;;4.82;;
79792;SDS011;69279;49.072;17.462;2023-08-12T05:47:57;6.90;;;5.43;;
79792;SDS011;69279;49.072;17.462;2023-08-12T05:50:22;5.85;;;4.60;;
79792;SDS011;69279;49.072;17.462;2023-08-12T05:52:48;8.60;;;5.22;;
79792;SDS011;69279;49.072;17.462;2023-08-12T05:55:15;5.88;;;4.38;;
79792;SDS011;69279;49.072;17.462;2023-08-12T05:57:41;5.30;;;4.80;;
79792;SDS011;69279;49.072;17.462;2023-08-12T06:00:06;5.40;;;4.72;;
79792;SDS011;69279;49.072;17.462;2023-08-12T06:02:32;5.47;;;4.53;;
79792;SDS011;69279;49.072;17.462;2023-08-12T06:04:57;4.90;;;4.18;;
79792;SDS011;69279;49.072;17.462;2023-08-12T06:07:23;6.05;;;4.30;;
79792;SDS011;69279;49.072;17.462;2023-08-12T06:09:48;7.60;;;4.57;;
79792;SDS011;69279;49.072;17.462;2023-08-12T06:12:15;5.95;;;4.80;;
79792;SDS011;69279;49.072;17.462;2023-08-12T06:14:40;8.00;;;3.95;;
79792;SDS011;69279;49.072;17.462;2023-08-12T06:17:06;4.93;;;4.03;;
79792;SDS011;69279;49.072;17.462;2023-08-12T06:19:31;6.35;;;4.38;;
79792;SDS011;69279;49.072;17.462;2023-08-12T06:21:57;5.40;;;4.20;;
79792;SDS011;69279;49.072;17.462;2023-08-12T06:24:22;4.93;;;4.43;;
79792;SDS011;69279;49.072;17.462;2023-08-12T06:26:47;5.35;;;4.38;;
79792;SDS011;69279;49.072;17.462;2023-08-12T06:29:13;4.72;;;4.32;;
79792;SDS011;69279;49.072;17.462;2023-08-12T06:31:38;5.32;;;4.45;;
79792;SDS011;69279;49.072;17.462;2023-08-12T06:34:04;4.63;;;4.03;;
79792;SDS011;69279;49.072;17.462;2023-08-12T06:36:29;5.70;;;4.32;;
79792;SDS011;69279;49.072;17.462;2023-08-12T06:38:55;5.20;;;4.70;;
79792;SDS011;69279;49.072;17.462;2023-08-12T06:41:21;4.85;;;4.18;;
79792;SDS011;69279;49.072;17.462;2023-08-12T06:43:47;4.95;;;4.43;;
79792;SDS011;69279;49.072;17.462;2023-08-12T06:46:13;7.53;;;4.18;;
79792;SDS011;69279;49.072;17.462;2023-08-12T06:48:38;4.53;;;4.00;;
79792;SDS011;69279;49.072;17.462;2023-08-12T06:51:03;4.78;;;3.97;;
79792;SDS011;69279;49.072;17.462;2023-08-12T06:53:35;5.22;;;4.72;;
79792;SDS011;69279;49.072;17.462;2023-08-12T06:56:04;4.60;;;4.13;;
79792;SDS011;69279;49.072;17.462;2023-08-12T06:58:29;4.60;;;4.03;;
79792;SDS011;69279;49.072;17.462;2023-08-12T07:00:55;5.30;;;4.10;;
79792;SDS011;69279;49.072;17.462;2023-08-12T07:03:21;5.15;;;4.20;;
79792;SDS011;69279;49.072;17.462;2023-08-12T07:05:47;4.63;;;4.15;;
79792;SDS011;69279;49.072;17.462;2023-08-12T07:08:12;4.22;;;3.83;;
79792;SDS011;69279;49.072;17.462;2023-08-12T07:10:38;4.30;;;3.90;;
79792;SDS011;69279;49.072;17.462;2023-08-12T07:13:04;3.92;;;3.58;;
79792;SDS011;69279;49.072;17.462;2023-08-12T07:15:29;4.63;;;4.22;;
79792;SDS011;69279;49.072;17.462;2023-08-12T07:17:55;4.22;;;3.83;;
79792;SDS011;69279;49.072;17.462;2023-08-12T07:20:20;4.68;;;4.10;;
79792;SDS011;69279;49.072;17.462;2023-08-12T07:22:46;4.68;;;3.90;;
79792;SDS011;69279;49.072;17.462;2023-08-12T07:25:11;4.45;;;3.80;;
79792;SDS011;69279;49.072;17.462;2023-08-12T07:27:36;4.85;;;4.05;;
79792;SDS011;69279;49.072;17.462;2023-08-12T07:30:02;3.90;;;3.60;;
79792;SDS011;69279;49.072;17.462;2023-08-12T07:32:28;4.03;;;3.72;;
79792;SDS011;69279;49.072;17.462;2023-08-12T07:34:53;4.80;;;3.70;;
79792;SDS011;69279;49.072;17.462;2023-08-12T07:37:18;4.40;;;4.00;;
79792;SDS011;69279;49.072;17.462;2023-08-12T07:39:44;4.30;;;3.90;;
79792;SDS011;69279;49.072;17.462;2023-08-12T07:42:09;4.53;;;4.15;;
79792;SDS011;69279;49.072;17.462;2023-08-12T07:44:35;4.32;;;3.80;;
79792;SDS011;69279;49.072;17.462;2023-08-12T07:47:00;4.05;;;3.67;;
79792;SDS011;69279;49.072;17.462;2023-08-12T07:49:25;3.65;;;3.20;;
79792;SDS011;69279;49.072;17.462;2023-08-12T07:51:51;4.22;;;3.83;;
79792;SDS011;69279;49.072;17.462;2023-08-12T07:54:16;3.45;;;3.15;;
79792;SDS011;69279;49.072;17.462;2023-08-12T07:56:41;4.43;;;3.97;;
79792;SDS011;69279;49.072;17.462;2023-08-12T07:59:07;3.75;;;3.45;;
79792;SDS011;69279;49.072;17.462;2023-08-12T08:01:32;4.28;;;3.83;;
79792;SDS011;69279;49.072;17.462;2023-08-12T08:03:57;4.05;;;3.60;;
79792;SDS011;69279;49.072;17.462;2023-08-12T08:06:23;4.20;;;3.25;;
79792;SDS011;69279;49.072;17.462;2023-08-12T08:08:49;4.20;;;3.45;;
79792;SDS011;69279;49.072;17.462;2023-08-12T08:11:14;3.90;;;3.50;;
79792;SDS011;69279;49.072;17.462;2023-08-12T08:13:40;4.45;;;3.47;;
79792;SDS011;69279;49.072;17.462;2023-08-12T08:16:05;3.70;;;3.40;;
79792;SDS011;69279;49.072;17.462;2023-08-12T08:18:31;4.15;;;3.85;;
79792;SDS011;69279;49.072;17.462;2023-08-12T08:20:56;3.85;;;3.47;;
79792;SDS011;69279;49.072;17.462;2023-08-12T08:23:21;4.53;;;3.67;;
79792;SDS011;69279;49.072;17.462;2023-08-12T08:25:47;4.22;;;3.30;;
79792;SDS011;69279;49.072;17.462;2023-08-12T08:28:13;4.90;;;3.88;;
79792;SDS011;69279;49.072;17.462;2023-08-12T08:30:38;4.25;;;3.88;;
79792;SDS011;69279;49.072;17.462;2023-08-12T08:33:03;4.75;;;3.42;;
79792;SDS011;69279;49.072;17.462;2023-08-12T08:35:30;4.10;;;3.70;;
79792;SDS011;69279;49.072;17.462;2023-08-12T08:37:56;3.60;;;3.00;;
79792;SDS011;69279;49.072;17.462;2023-08-12T08:40:21;4.10;;;3.20;;
79792;SDS011;69279;49.072;17.462;2023-08-12T08:42:49;3.88;;;3.40;;
79792;SDS011;69279;49.072;17.462;2023-08-12T08:45:18;3.35;;;3.05;;
79792;SDS011;69279;49.072;17.462;2023-08-12T08:47:43;3.70;;;3.33;;
79792;SDS011;69279;49.072;17.462;2023-08-12T08:50:10;3.35;;;3.05;;
79792;SDS011;69279;49.072;17.462;2023-08-12T08:52:36;3.30;;;3.00;;
79792;SDS011;69279;49.072;17.462;2023-08-12T08:55:03;3.83;;;3.25;;
79792;SDS011;69279;49.072;17.462;2023-08-12T08:57:29;3.72;;;3.42;;
79792;SDS011;69279;49.072;17.462;2023-08-12T08:59:55;4.05;;;3.60;;
79792;SDS011;69279;49.072;17.462;2023-08-12T09:02:20;3.55;;;3.25;;
79792;SDS011;69279;49.072;17.462;2023-08-12T09:04:46;4.32;;;3.55;;
79792;SDS011;69279;49.072;17.462;2023-08-12T09:07:12;3.97;;;3.03;;
79792;SDS011;69279;49.072;17.462;2023-08-12T09:09:39;3.33;;;3.03;;
79792;SDS011;69279;49.072;17.462;2023-08-12T09:12:09;3.45;;;3.05;;
79792;SDS011;69279;49.072;17.462;2023-08-12T09:14:36;3.30;;;2.90;;
79792;SDS011;69279;49.072;17.462;2023-08-12T09:17:01;2.45;;;2.25;;
79792;SDS011;69279;49.072;17.462;2023-08-12T09:19:27;2.75;;;2.55;;
79792;SDS011;69279;49.072;17.462;2023-08-12T09:21:53;3.33;;;2.42;;
79792;SDS011;69279;49.072;17.462;2023-08-12T09:24:25;3.00;;;2.63;;
79792;SDS011;69279;49.072;17.462;2023-08-12T09:26:52;2.85;;;2.65;;
79792;SDS011;69279;49.072;17.462;2023-08-12T09:29:22;2.90;;;2.70;;
79792;SDS011;69279;49.072;17.462;2023-08-12T09:31:49;2.60;;;2.40;;
79792;SDS011;69279;49.072;17.462;2023-08-12T09:34:15;3.42;;;2.83;;
79792;SDS011;69279;49.072;17.462;2023-08-12T09:36:42;3.58;;;3.35;;
79792;SDS011;69279;49.072;17.462;2023-08-12T09:39:09;3.28;;;2.60;;
79792;SDS011;69279;49.072;17.462;2023-08-12T09:41:34;3.42;;;2.42;;
79792;SDS011;69279;49.072;17.462;2023-08-12T09:44:01;3.20;;;2.60;;
79792;SDS011;69279;49.072;17.462;2023-08-12T09:46:27;3.05;;;2.78;;
79792;SDS011;69279;49.072;17.462;2023-08-12T09:48:53;3.00;;;2.53;;
79792;SDS011;69279;49.072;17.462;2023-08-12T09:51:20;2.92;;;2.40;;
79792;SDS011;69279;49.072;17.462;2023-08-12T09:53:49;2.83;;;2.63;;
79792;SDS011;69279;49.072;17.462;2023-08-12T09:56:17;3.50;;;3.20;;
79792;SDS011;69279;49.072;17.462;2023-08-12T09:58:43;2.80;;;2.60;;
79792;SDS011;69279;49.072;17.462;2023-08-12T10:01:10;2.95;;;2.22;;
79792;SDS011;69279;49.072;17.462;2023-08-12T10:03:36;3.63;;;2.65;;
79792;SDS011;69279;49.072;17.462;2023-08-12T10:06:02;2.78;;;2.58;;
79792;SDS011;69279;49.072;17.462;2023-08-12T10:08:29;3.20;;;2.45;;
79792;SDS011;69279;49.072;17.462;2023-08-12T10:10:55;2.78;;;2.58;;
79792;SDS011;69279;49.072;17.462;2023-08-12T10:13:23;2.70;;;2.47;;
79792;SDS011;69279;49.072;17.462;2023-08-12T10:15:49;2.95;;;2.70;;
79792;SDS011;69279;49.072;17.462;2023-08-12T10:18:15;2.63;;;2.42;;
79792;SDS011;69279;49.072;17.462;2023-08-12T10:20:40;5.93;;;2.40;;
79792;SDS011;69279;49.072;17.462;2023-08-12T10:23:08;2.95;;;2.75;;
79792;SDS011;69279;49.072;17.462;2023-08-12T10:25:41;3.10;;;2.90;;
79792;SDS011;69279;49.072;17.462;2023-08-12T10:28:07;2.83;;;2.55;;
79792;SDS011;69279;49.072;17.462;2023-08-12T10:30:33;3.05;;;2.58;;
79792;SDS011;69279;49.072;17.462;2023-08-12T10:32:59;2.67;;;2.47;;
79792;SDS011;69279;49.072;17.462;2023-08-12T10:35:39;2.60;;;2.40;;
79792;SDS011;69279;49.072;17.462;2023-08-12T10:38:05;2.83;;;2.63;;
79792;SDS011;69279;49.072;17.462;2023-08-12T10:40:33;3.17;;;2.55;;
79792;SDS011;69279;49.072;17.462;2023-08-12T10:42:58;3.30;;;2.58;;
79792;SDS011;69279;49.072;17.462;2023-08-12T10:45:24;2.80;;;2.60;;
79792;SDS011;69279;49.072;17.462;2023-08-12T10:48:17;2.42;;;2.22;;
79792;SDS011;69279;49.072;17.462;2023-08-12T10:50:48;2.38;;;2.17;;
79792;SDS011;69279;49.072;17.462;2023-08-12T10:53:26;3.50;;;2.35;;
79792;SDS011;69279;49.072;17.462;2023-08-12T10:55:57;2.55;;;2.35;;
79792;SDS011;69279;49.072;17.462;2023-08-12T10:58:24;2.90;;;2.70;;
79792;SDS011;69279;49.072;17.462;2023-08-12T11:00:54;3.15;;;2.63;;
79792;SDS011;69279;49.072;17.462;2023-08-12T11:03:20;3.15;;;2.40;;
79792;SDS011;69279;49.072;17.462;2023-08-12T11:05:46;2.80;;;2.60;;
79792;SDS011;69279;49.072;17.462;2023-08-12T11:08:12;2.67;;;2.47;;
79792;SDS011;69279;49.072;17.462;2023-08-12T11:10:39;2.53;;;2.33;;
79792;SDS011;69279;49.072;17.462;2023-08-12T11:13:06;2.67;;;2.47;;
79792;SDS011;69279;49.072;17.462;2023-08-12T11:15:38;2.45;;;2.25;;
79792;SDS011;69279;49.072;17.462;2023-08-12T11:18:07;2.53;;;2.35;;
79792;SDS011;69279;49.072;17.462;2023-08-12T11:20:33;2.55;;;2.33;;
79792;SDS011;69279;49.072;17.462;2023-08-12T11:22:59;3.15;;;2.80;;
79792;SDS011;69279;49.072;17.462;2023-08-12T11:25:32;2.38;;;2.15;;
79792;SDS011;69279;49.072;17.462;2023-08-12T11:27:58;2.53;;;2.33;;
79792;SDS011;69279;49.072;17.462;2023-08-12T11:30:24;2.47;;;2.28;;
79792;SDS011;69279;49.072;17.462;2023-08-12T11:32:51;2.53;;;2.33;;
79792;SDS011;69279;49.072;17.462;2023-08-12T11:35:19;2.50;;;2.30;;
79792;SDS011;69279;49.072;17.462;2023-08-12T11:37:46;2.45;;;2.20;;
79792;SDS011;69279;49.072;17.462;2023-08-12T11:40:14;2.47;;;2.28;;
79792;SDS011;69279;49.072;17.462;2023-08-12T11:42:42;3.65;;;2.50;;
79792;SDS011;69279;49.072;17.462;2023-08-12T11:45:10;2.97;;;2.65;;
79792;SDS011;69279;49.072;17.462;2023-08-12T11:47:37;2.47;;;2.28;;
79792;SDS011;69279;49.072;17.462;2023-08-12T11:50:05;3.05;;;2.30;;
79792;SDS011;69279;49.072;17.462;2023-08-12T11:52:38;2.20;;;2.00;;
79792;SDS011;69279;49.072;17.462;2023-08-12T11:55:04;2.90;;;2.22;;
79792;SDS011;69279;49.072;17.462;2023-08-12T11:57:31;2.88;;;2.67;;
79792;SDS011;69279;49.072;17.462;2023-08-12T12:00:00;2.30;;;2.10;;
79792;SDS011;69279;49.072;17.462;2023-08-12T12:02:35;2.45;;;2.28;;
79792;SDS011;69279;49.072;17.462;2023-08-12T12:05:13;2.55;;;2.35;;
79792;SDS011;69279;49.072;17.462;2023-08-12T12:07:38;2.13;;;2.03;;
79792;SDS011;69279;49.072;17.462;2023-08-12T12:10:05;2.00;;;1.90;;
79792;SDS011;69279;49.072;17.462;2023-08-12T12:12:34;2.38;;;2.20;;
79792;SDS011;69279;49.072;17.462;2023-08-12T12:15:00;2.70;;;2.25;;
79792;SDS011;69279;49.072;17.462;2023-08-12T12:17:27;2.25;;;2.05;;
79792;SDS011;69279;49.072;17.462;2023-08-12T12:19:56;2.38;;;2.00;;
79792;SDS011;69279;49.072;17.462;2023-08-12T12:22:29;2.38;;;2.28;;
79792;SDS011;69279;49.072;17.462;2023-08-12T12:24:57;2.20;;;2.00;;
79792;SDS011;69279;49.072;17.462;2023-08-12T12:27:31;2.28;;;1.73;;
79792;SDS011;69279;49.072;17.462;2023-08-12T12:29:56;2.10;;;1.90;;
79792;SDS011;69279;49.072;17.462;2023-08-12T12:32:22;2.05;;;1.65;;
79792;SDS011;69279;49.072;17.462;2023-08-12T12:34:47;2.50;;;2.25;;
79792;SDS011;69279;49.072;17.462;2023-08-12T12:37:13;2.30;;;2.10;;
79792;SDS011;69279;49.072;17.462;2023-08-12T12:39:39;2.35;;;2.10;;
79792;SDS011;69279;49.072;17.462;2023-08-12T12:42:04;1.85;;;1.75;;
79792;SDS011;69279;49.072;17.462;2023-08-12T12:44:30;1.73;;;1.63;;
79792;SDS011;69279;49.072;17.462;2023-08-12T12:46:55;1.92;;;1.83;;
79792;SDS011;69279;49.072;17.462;2023-08-12T12:49:21;1.90;;;1.70;;
79792;SDS011;69279;49.072;17.462;2023-08-12T12:51:46;1.95;;;1.85;;
79792;SDS011;69279;49.072;17.462;2023-08-12T12:54:12;2.22;;;1.83;;
79792;SDS011;69279;49.072;17.462;2023-08-12T12:56:37;2.45;;;2.00;;
79792;SDS011;69279;49.072;17.462;2023-08-12T12:59:03;1.63;;;1.52;;
79792;SDS011;69279;49.072;17.462;2023-08-12T13:01:28;2.97;;;1.73;;
79792;SDS011;69279;49.072;17.462;2023-08-12T13:03:53;2.45;;;1.83;;
79792;SDS011;69279;49.072;17.462;2023-08-12T13:06:19;2.20;;;1.73;;
79792;SDS011;69279;49.072;17.462;2023-08-12T13:08:44;1.90;;;1.80;;
79792;SDS011;69279;49.072;17.462;2023-08-12T13:11:09;2.97;;;1.90;;
79792;SDS011;69279;49.072;17.462;2023-08-12T13:13:36;1.77;;;1.67;;
79792;SDS011;69279;49.072;17.462;2023-08-12T13:16:01;2.20;;;2.00;;
79792;SDS011;69279;49.072;17.462;2023-08-12T13:18:27;1.70;;;1.60;;
79792;SDS011;69279;49.072;17.462;2023-08-12T13:20:53;2.38;;;1.88;;
79792;SDS011;69279;49.072;17.462;2023-08-12T13:23:19;1.80;;;1.52;;
79792;SDS011;69279;49.072;17.462;2023-08-12T13:25:44;1.83;;;1.73;;
79792;SDS011;69279;49.072;17.462;2023-08-12T13:28:10;1.73;;;1.55;;
79792;SDS011;69279;49.072;17.462;2023-08-12T13:30:35;2.50;;;1.98;;
79792;SDS011;69279;49.072;17.462;2023-08-12T13:33:02;1.90;;;1.80;;
79792;SDS011;69279;49.072;17.462;2023-08-12T13:35:28;2.35;;;1.65;;
79792;SDS011;69279;49.072;17.462;2023-08-12T13:37:54;2.28;;;1.73;;
79792;SDS011;69279;49.072;17.462;2023-08-12T13:40:20;2.08;;;1.88;;
79792;SDS011;69279;49.072;17.462;2023-08-12T13:42:46;1.70;;;1.60;;
79792;SDS011;69279;49.072;17.462;2023-08-12T13:45:12;2.50;;;1.65;;
79792;SDS011;69279;49.072;17.462;2023-08-12T13:47:38;1.88;;;1.63;;
79792;SDS011;69279;49.072;17.462;2023-08-12T13:50:03;2.13;;;1.60;;
79792;SDS011;69279;49.072;17.462;2023-08-12T13:52:29;1.52;;;1.40;;
79792;SDS011;69279;49.072;17.462;2023-08-12T13:54:54;1.80;;;1.63;;
79792;SDS011;69279;49.072;17.462;2023-08-12T13:57:19;2.90;;;1.80;;
79792;SDS011;69279;49.072;17.462;2023-08-12T13:59:45;1.63;;;1.52;;
79792;SDS011;69279;49.072;17.462;2023-08-12T14:02:12;1.60;;;1.50;;
79792;SDS011;69279;49.072;17.462;2023-08-12T14:04:38;2.92;;;1.73;;
79792;SDS011;69279;49.072;17.462;2023-08-12T14:07:03;1.70;;;1.60;;
79792;SDS011;69279;49.072;17.462;2023-08-12T14:09:29;2.00;;;1.50;;
79792;SDS011;69279;49.072;17.462;2023-08-12T14:11:54;2.30;;;1.73;;
79792;SDS011;69279;49.072;17.462;2023-08-12T14:14:20;1.95;;;1.52;;
79792;SDS011;69279;49.072;17.462;2023-08-12T14:16:47;2.10;;;1.60;;
79792;SDS011;69279;49.072;17.462;2023-08-12T14:19:13;2.33;;;1.42;;
79792;SDS011;69279;49.072;17.462;2023-08-12T14:21:41;2.08;;;1.80;;
79792;SDS011;69279;49.072;17.462;2023-08-12T14:24:08;1.90;;;1.70;;
79792;SDS011;69279;49.072;17.462;2023-08-12T14:26:34;1.90;;;1.70;;
79792;SDS011;69279;49.072;17.462;2023-08-12T14:28:59;2.15;;;1.60;;
79792;SDS011;69279;49.072;17.462;2023-08-12T14:31:25;1.63;;;1.50;;
79792;SDS011;69279;49.072;17.462;2023-08-12T14:33:50;2.05;;;1.85;;
79792;SDS011;69279;49.072;17.462;2023-08-12T14:36:15;1.90;;;1.80;;